Time;durP1;ratioP1;P1;durP2;ratioP2;P2;SDS_P1;SDS_P2;PMS_P1;PMS_P2;Temp;Humidity;BMP_temperature;BMP_pressure;BME280_temperature;BME280_humidity;BME280_pressure;Samples;Min_cycle;Max_cycle;Signal;HPM_P1;HPM_P2
2023/06/27 00:01:08;;;;;;;6.95;1.95;;;15.20;99.90;;;;;;5110875;27;20043;-81
2023/06/27 00:03:34;;;;;;;5.30;1.55;;;15.30;99.90;;;;;;5113916;28;20488;-80
2023/06/27 00:06:00;;;;;;;3.92;1.80;;;15.20;99.90;;;;;;5108818;28;20039;-82
2023/06/27 00:08:27;;;;;;;4.75;1.90;;;15.20;99.90;;;;;;5106836;28;20063;-83
2023/06/27 00:10:53;;;;;;;3.10;1.50;;;15.20;99.90;;;;;;5106305;28;20396;-82
2023/06/27 00:13:20;;;;;;;3.53;1.50;;;15.20;99.90;;;;;;5106358;28;20505;-82
2023/06/27 00:15:52;;;;;;;6.22;1.45;;;15.20;99.90;;;;;;5106677;28;20074;-82
2023/06/27 00:18:21;;;;;;;3.47;1.85;;;15.20;99.90;;;;;;5087731;28;20128;-82
2023/06/27 00:20:48;;;;;;;4.43;1.85;;;15.20;99.90;;;;;;5089261;28;20051;-82
2023/06/27 00:23:22;;;;;;;4.07;1.50;;;15.30;99.90;;;;;;5086593;28;20043;-81
2023/06/27 00:25:51;;;;;;;5.68;2.17;;;15.20;99.90;;;;;;5105472;28;20048;-82
2023/06/27 00:28:17;;;;;;;4.53;1.42;;;15.20;99.90;;;;;;5104758;28;20123;-82
2023/06/27 00:30:43;;;;;;;6.32;1.88;;;15.20;99.90;;;;;;5104278;28;20044;-81
2023/06/27 00:33:12;;;;;;;4.95;1.42;;;15.20;99.90;;;;;;5088515;28;20132;-82
2023/06/27 00:35:38;;;;;;;3.83;1.52;;;15.20;99.90;;;;;;5103475;28;20051;-82
2023/06/27 00:38:04;;;;;;;4.47;1.67;;;15.30;99.90;;;;;;5105120;28;20055;-82
2023/06/27 00:40:30;;;;;;;1.77;1.20;;;15.30;99.90;;;;;;5053059;28;20048;-82
2023/06/27 00:42:57;;;;;;;4.38;1.55;;;15.30;99.90;;;;;;5103739;28;20060;-81
2023/06/27 00:45:23;;;;;;;8.77;2.20;;;15.30;99.90;;;;;;5087550;28;20044;-82
2023/06/27 00:47:56;;;;;;;5.97;1.42;;;15.50;99.90;;;;;;5053790;28;20536;-81
2023/06/27 00:50:23;;;;;;;3.67;1.50;;;15.30;99.90;;;;;;5071998;28;20054;-82
2023/06/27 00:52:49;;;;;;;5.07;1.38;;;15.30;99.90;;;;;;5103133;28;20096;-81
2023/06/27 00:55:16;;;;;;;10.40;1.90;;;15.30;99.90;;;;;;5088214;28;20047;-82
2023/06/27 00:57:42;;;;;;;12.60;2.85;;;15.30;99.90;;;;;;5069634;28;20054;-82
2023/06/27 01:00:12;;;;;;;3.97;2.28;;;15.30;99.90;;;;;;5104547;28;20108;-82
2023/06/27 01:02:37;;;;;;;3.15;1.60;;;15.20;99.90;;;;;;5103773;28;20042;-83
2023/06/27 01:05:05;;;;;;;7.97;1.73;;;15.20;99.90;;;;;;5103252;28;20036;-82
2023/06/27 01:07:57;;;;;;;4.93;1.58;;;15.20;99.90;;;;;;5105183;28;20393;-82
2023/06/27 01:10:50;;;;;;;3.67;1.70;;;15.20;99.90;;;;;;5072966;28;20414;-82
2023/06/27 01:13:29;;;;;;;2.25;1.40;;;15.20;99.90;;;;;;5086061;28;20132;-82
2023/06/27 01:15:57;;;;;;;4.82;1.50;;;15.20;99.90;;;;;;5104116;28;20039;-82
2023/06/27 01:18:25;;;;;;;3.95;1.40;;;15.10;99.90;;;;;;5102951;28;20036;-82
2023/06/27 01:20:52;;;;;;;3.65;1.30;;;15.20;99.90;;;;;;5104984;28;20114;-82
2023/06/27 01:23:51;;;;;;;6.13;1.85;;;15.10;99.90;;;;;;5068820;28;20070;-83
2023/06/27 01:26:17;;;;;;;5.57;1.42;;;15.10;99.90;;;;;;5086304;28;20040;-81
2023/06/27 01:28:43;;;;;;;4.75;1.45;;;15.10;99.90;;;;;;5087649;28;20398;-82
2023/06/27 01:31:17;;;;;;;2.63;1.35;;;15.10;99.90;;;;;;5102538;28;20589;-81
2023/06/27 01:33:48;;;;;;;4.88;1.48;;;15.10;99.90;;;;;;5087714;28;20043;-81
2023/06/27 01:36:23;;;;;;;2.50;1.52;;;15.20;99.90;;;;;;5103110;28;20051;-83
2023/06/27 01:38:56;;;;;;;5.38;1.65;;;15.10;99.90;;;;;;5105455;28;20391;-82
2023/06/27 01:41:25;;;;;;;5.10;1.52;;;15.10;99.90;;;;;;5107665;28;20043;-81
2023/06/27 01:43:54;;;;;;;9.52;1.50;;;15.20;99.90;;;;;;5110780;28;20052;-82
2023/06/27 01:46:21;;;;;;;6.38;1.55;;;15.10;99.90;;;;;;5109785;28;20036;-81
2023/06/27 01:48:48;;;;;;;5.65;1.60;;;15.10;99.90;;;;;;5104524;28;20136;-82
2023/06/27 01:51:14;;;;;;;7.50;1.70;;;15.10;99.90;;;;;;5104562;28;20043;-81
2023/06/27 01:53:40;;;;;;;5.30;1.40;;;15.10;99.90;;;;;;5105198;28;20046;-82
2023/06/27 01:56:08;;;;;;;3.28;1.38;;;15.10;99.90;;;;;;5107815;28;20051;-82
2023/06/27 01:58:33;;;;;;;5.53;1.95;;;15.10;99.90;;;;;;5092065;28;20057;-82
2023/06/27 02:00:59;;;;;;;4.10;1.55;;;15.10;99.90;;;;;;5073403;28;20039;-81
2023/06/27 02:03:25;;;;;;;5.03;1.40;;;15.00;99.90;;;;;;5091946;28;20040;-82
2023/06/27 02:05:51;;;;;;;3.75;1.38;;;15.00;99.90;;;;;;5106960;28;20512;-81
2023/06/27 02:08:17;;;;;;;2.05;1.40;;;15.00;99.90;;;;;;5091556;28;20071;-82
2023/06/27 02:10:42;;;;;;;3.50;1.63;;;15.00;99.90;;;;;;5090299;28;20048;-82
2023/06/27 02:13:08;;;;;;;4.82;1.70;;;14.90;99.90;;;;;;5073533;28;20050;-83
2023/06/27 02:15:34;;;;;;;6.43;1.73;;;14.90;99.90;;;;;;5091385;28;20043;-82
2023/06/27 02:18:01;;;;;;;3.30;1.52;;;14.90;99.90;;;;;;5072706;28;20126;-83
2023/06/27 02:20:27;;;;;;;6.45;1.58;;;14.90;99.90;;;;;;5092151;28;20040;-82
2023/06/27 02:22:52;;;;;;;3.35;1.73;;;14.90;99.90;;;;;;5106853;28;20535;-81
2023/06/27 02:25:18;;;;;;;7.25;1.98;;;14.90;99.90;;;;;;5108866;28;20088;-82
2023/06/27 02:27:43;;;;;;;6.72;1.40;;;14.90;99.90;;;;;;5089674;28;20063;-83
2023/06/27 02:30:10;;;;;;;4.60;1.27;;;14.80;99.90;;;;;;5073292;28;20153;-82
2023/06/27 02:32:35;;;;;;;4.93;1.30;;;14.80;99.90;;;;;;5107386;28;20036;-82
2023/06/27 02:35:01;;;;;;;4.47;1.45;;;14.80;99.90;;;;;;5089691;28;20039;-82
2023/06/27 02:37:27;;;;;;;4.68;2.13;;;14.80;99.90;;;;;;5090977;28;20104;-83
2023/06/27 02:39:54;;;;;;;2.58;1.42;;;14.80;99.90;;;;;;5072151;28;20317;-83
2023/06/27 02:42:20;;;;;;;3.63;1.65;;;14.80;99.90;;;;;;5110655;27;20059;-81
2023/06/27 02:44:48;;;;;;;3.53;1.95;;;14.80;99.90;;;;;;5093206;27;20119;-81
2023/06/27 02:47:14;;;;;;;3.60;1.90;;;14.70;99.90;;;;;;5093342;27;20039;-82
2023/06/27 02:49:42;;;;;;;3.47;2.10;;;14.70;99.90;;;;;;5129192;27;20044;-81
2023/06/27 02:52:08;;;;;;;3.10;2.00;;;14.70;99.90;;;;;;5127869;27;20146;-83
2023/06/27 02:54:34;;;;;;;3.80;1.52;;;14.70;99.90;;;;;;5110948;27;20494;-82
2023/06/27 02:56:59;;;;;;;5.47;2.08;;;14.60;99.90;;;;;;5127457;27;20126;-82
2023/06/27 02:59:25;;;;;;;2.72;1.45;;;14.60;99.90;;;;;;5111264;27;20501;-83
2023/06/27 03:01:51;;;;;;;6.53;1.60;;;14.60;99.90;;;;;;5109148;27;20043;-81
2023/06/27 03:04:22;;;;;;;5.88;1.88;;;14.60;99.90;;;;;;5110533;27;20088;-82
2023/06/27 03:06:49;;;;;;;4.78;1.88;;;14.60;99.90;;;;;;5109206;27;20039;-82
2023/06/27 03:09:16;;;;;;;5.63;1.60;;;14.50;99.90;;;;;;5074943;27;20047;-82
2023/06/27 03:11:42;;;;;;;7.72;1.80;;;14.50;99.90;;;;;;5110945;27;20134;-82
2023/06/27 03:14:08;;;;;;;7.07;1.95;;;14.50;99.90;;;;;;5074569;27;20162;-82
2023/06/27 03:16:33;;;;;;;6.20;2.00;;;14.50;99.90;;;;;;5110459;27;20217;-82
2023/06/27 03:18:59;;;;;;;3.58;1.33;;;14.60;99.90;;;;;;5109579;27;20039;-83
2023/06/27 03:21:25;;;;;;;6.78;1.80;;;14.60;99.90;;;;;;5111707;27;20043;-81
2023/06/27 03:23:50;;;;;;;6.38;1.40;;;14.60;99.90;;;;;;5116056;27;20043;-80
2023/06/27 03:26:16;;;;;;;7.03;1.60;;;14.60;99.90;;;;;;5097699;27;20047;-82
2023/06/27 03:28:41;;;;;;;3.40;2.00;;;14.60;99.90;;;;;;5077552;27;20470;-82
2023/06/27 03:31:07;;;;;;;3.65;0.85;;;14.70;99.90;;;;;;5074945;27;20035;-82
2023/06/27 03:33:33;;;;;;;4.97;1.45;;;14.70;99.90;;;;;;5093456;27;20039;-83
2023/06/27 03:35:58;;;;;;;4.57;2.63;;;14.70;99.90;;;;;;5074682;27;20454;-82
2023/06/27 03:38:24;;;;;;;2.40;1.50;;;14.70;99.90;;;;;;5109610;27;20043;-83
2023/06/27 03:40:50;;;;;;;5.07;1.35;;;14.70;99.90;;;;;;5075355;27;20050;-83
2023/06/27 03:43:15;;;;;;;6.07;1.27;;;13.40;99.90;;;;;;5090978;27;20051;-83
2023/06/27 03:45:42;;;;;;;2.97;1.30;;;14.80;99.90;;;;;;5109762;27;20054;-82
2023/06/27 03:48:08;;;;;;;3.03;1.27;;;14.80;99.90;;;;;;5107863;27;20258;-82
2023/06/27 03:50:34;;;;;;;4.50;1.85;;;14.80;99.90;;;;;;5109787;27;20130;-82
2023/06/27 03:53:03;;;;;;;5.90;2.45;;;14.80;99.90;;;;;;5108487;27;20711;-82
2023/06/27 03:55:28;;;;;;;3.88;1.73;;;14.90;99.90;;;;;;5110800;27;20389;-82
2023/06/27 03:57:54;;;;;;;6.03;1.70;;;14.90;99.90;;;;;;5094126;27;20126;-82
2023/06/27 04:00:21;;;;;;;6.75;1.48;;;14.90;99.90;;;;;;5128668;27;20072;-83
2023/06/27 04:02:46;;;;;;;2.28;1.17;;;14.90;99.90;;;;;;5130214;27;20043;-81
2023/06/27 04:05:12;;;;;;;8.45;1.67;;;14.90;99.90;;;;;;5109353;27;20039;-81
2023/06/27 04:07:40;;;;;;;2.33;1.20;;;14.90;99.90;;;;;;5111520;27;20115;-82
2023/06/27 04:10:06;;;;;;;5.72;1.27;;;15.00;99.90;;;;;;5128844;27;20111;-81
2023/06/27 04:12:32;;;;;;;4.40;1.42;;;15.00;99.90;;;;;;5127594;27;20035;-83
2023/06/27 04:14:58;;;;;;;2.08;0.93;;;15.10;99.90;;;;;;5091450;27;20393;-83
2023/06/27 04:17:23;;;;;;;3.85;1.10;;;15.10;99.90;;;;;;5107500;27;20624;-81
2023/06/27 04:19:49;;;;;;;2.45;0.90;;;15.10;99.90;;;;;;5075252;27;20081;-81
2023/06/27 04:22:15;;;;;;;3.92;1.38;;;15.20;99.90;;;;;;5107544;27;20043;-81
2023/06/27 04:24:40;;;;;;;6.47;1.42;;;15.30;99.90;;;;;;5128254;27;20039;-82
2023/06/27 04:27:08;;;;;;;6.72;1.33;;;15.30;99.90;;;;;;5107126;27;20050;-82
2023/06/27 04:29:34;;;;;;;3.75;1.13;;;15.30;99.90;;;;;;5091055;27;20046;-82
2023/06/27 04:32:00;;;;;;;2.67;1.10;;;15.40;99.90;;;;;;5090817;27;20536;-82
2023/06/27 04:34:27;;;;;;;1.98;1.27;;;15.40;99.90;;;;;;5090084;27;20119;-81
2023/06/27 04:36:53;;;;;;;4.45;2.15;;;15.50;99.90;;;;;;5108377;27;20054;-82
2023/06/27 04:39:19;;;;;;;5.68;2.30;;;15.50;99.90;;;;;;5107410;27;20043;-83
2023/06/27 04:41:44;;;;;;;5.03;1.17;;;15.60;99.90;;;;;;5108659;27;20530;-83
2023/06/27 04:44:10;;;;;;;5.28;1.10;;;15.70;99.90;;;;;;5106566;27;20058;-83
2023/06/27 04:46:36;;;;;;;6.05;1.05;;;15.70;99.90;;;;;;5074759;27;20574;-81
2023/06/27 04:49:02;;;;;;;3.83;1.25;;;15.80;99.90;;;;;;5090804;27;20075;-81
2023/06/27 04:51:28;;;;;;;5.25;1.17;;;15.80;99.90;;;;;;5073350;27;20039;-81
2023/06/27 04:53:54;;;;;;;4.10;1.10;;;15.90;99.90;;;;;;5109061;27;20043;-80
2023/06/27 04:56:20;;;;;;;2.30;1.08;;;15.90;99.90;;;;;;5093768;27;20498;-80
2023/06/27 04:58:46;;;;;;;4.35;1.35;;;15.90;99.90;;;;;;5115011;27;20073;-81
2023/06/27 05:01:11;;;;;;;5.80;1.00;;;16.00;99.90;;;;;;5112004;27;20122;-83
2023/06/27 05:03:37;;;;;;;7.00;1.30;;;16.10;99.90;;;;;;5127933;27;20088;-82
2023/06/27 05:06:06;;;;;;;7.93;1.65;;;16.20;99.90;;;;;;5126374;27;20420;-82
2023/06/27 05:08:32;;;;;;;4.25;1.02;;;16.20;99.90;;;;;;5107183;27;20047;-81
2023/06/27 05:10:58;;;;;;;10.18;1.27;;;16.30;99.90;;;;;;5108116;27;20126;-81
2023/06/27 05:13:24;;;;;;;4.45;1.27;;;16.30;99.90;;;;;;5125073;27;20126;-82
2023/06/27 05:15:49;;;;;;;6.18;1.48;;;16.40;99.90;;;;;;5127472;27;20466;-83
2023/06/27 05:18:15;;;;;;;4.10;1.70;;;16.50;99.90;;;;;;5106558;27;20054;-84
2023/06/27 05:20:44;;;;;;;3.45;1.55;;;16.60;99.90;;;;;;5091361;27;20039;-83
2023/06/27 05:23:10;;;;;;;3.17;1.08;;;16.70;99.90;;;;;;5107653;27;20058;-82
2023/06/27 05:25:37;;;;;;;5.03;1.33;;;16.70;99.90;;;;;;5107261;27;20456;-82
2023/06/27 05:28:03;;;;;;;3.75;1.25;;;16.80;99.90;;;;;;5108099;28;20047;-82
2023/06/27 05:30:29;;;;;;;11.10;1.27;;;16.90;99.90;;;;;;5123918;27;20056;-82
2023/06/27 05:32:56;;;;;;;3.45;1.27;;;17.00;99.90;;;;;;5108349;27;20381;-83
2023/06/27 05:35:22;;;;;;;6.22;1.30;;;17.00;99.90;;;;;;5089082;28;20035;-82
2023/06/27 05:37:48;;;;;;;9.60;1.52;;;17.10;99.90;;;;;;5126180;27;20380;-83
2023/06/27 05:40:14;;;;;;;7.25;1.02;;;17.20;99.90;;;;;;5090017;27;20068;-81
2023/06/27 05:42:40;;;;;;;2.75;1.30;;;17.30;99.90;;;;;;5124466;27;20069;-82
2023/06/27 05:45:06;;;;;;;3.50;1.02;;;17.40;99.90;;;;;;5107703;28;20502;-82
2023/06/27 05:47:32;;;;;;;8.02;1.42;;;17.50;99.90;;;;;;5124483;28;20051;-82
2023/06/27 05:49:58;;;;;;;3.58;1.05;;;17.60;99.90;;;;;;5108421;28;20481;-82
2023/06/27 05:52:24;;;;;;;3.22;1.27;;;17.70;99.90;;;;;;5105930;28;20355;-83
2023/06/27 05:54:50;;;;;;;5.50;1.00;;;17.80;99.90;;;;;;5126054;28;20047;-82
2023/06/27 05:57:16;;;;;;;1.73;0.80;;;17.90;99.90;;;;;;5089697;28;20282;-82
2023/06/27 05:59:42;;;;;;;5.78;2.28;;;18.00;99.90;;;;;;5106480;28;20062;-83
2023/06/27 06:02:08;;;;;;;4.47;1.40;;;18.10;99.90;;;;;;5125935;28;20039;-83
2023/06/27 06:04:33;;;;;;;3.10;1.20;;;18.20;99.90;;;;;;5123699;28;20074;-82
2023/06/27 06:06:59;;;;;;;9.52;2.35;;;18.30;99.90;;;;;;5107998;28;20159;-82
2023/06/27 06:09:28;;;;;;;9.32;1.25;;;18.40;99.90;;;;;;5089283;27;20050;-82
2023/06/27 06:11:53;;;;;;;4.20;0.93;;;18.40;99.90;;;;;;5090134;28;20049;-82
2023/06/27 06:14:19;;;;;;;9.60;1.10;;;18.50;99.90;;;;;;5073070;28;20134;-82
2023/06/27 06:16:45;;;;;;;4.65;0.73;;;18.60;99.90;;;;;;5072774;28;20479;-82
2023/06/27 06:19:11;;;;;;;5.38;1.50;;;18.70;99.90;;;;;;5107623;28;20039;-81
2023/06/27 06:21:37;;;;;;;4.90;1.00;;;18.80;99.90;;;;;;5072055;28;20639;-81
2023/06/27 06:24:03;;;;;;;3.17;0.70;;;18.90;99.90;;;;;;5073949;28;20092;-81
2023/06/27 06:26:29;;;;;;;4.80;0.75;;;18.90;99.90;;;;;;5105730;28;20043;-82
2023/06/27 06:28:55;;;;;;;3.90;1.00;;;19.10;99.90;;;;;;5107894;28;20062;-83
2023/06/27 06:31:22;;;;;;;3.65;0.70;;;19.20;99.90;;;;;;5091146;28;20047;-82
2023/06/27 06:33:48;;;;;;;4.05;0.70;;;19.30;99.90;;;;;;5094721;28;20046;-80
2023/06/27 06:36:14;;;;;;;3.97;0.63;;;19.40;99.90;;;;;;5096361;28;20126;-81
2023/06/27 06:38:40;;;;;;;3.17;0.68;;;19.50;99.90;;;;;;5108375;28;20035;-81
2023/06/27 06:41:06;;;;;;;5.82;0.82;;;19.60;99.90;;;;;;5109925;27;20043;-83
2023/06/27 06:43:32;;;;;;;3.05;0.60;;;19.70;99.90;;;;;;5076148;27;20066;-82
2023/06/27 06:45:58;;;;;;;3.03;0.63;;;19.80;99.90;;;;;;5076702;27;20486;-83
2023/06/27 06:48:24;;;;;;;4.40;1.05;;;19.90;99.90;;;;;;5092780;27;20054;-82
2023/06/27 06:50:51;;;;;;;4.55;0.65;;;20.00;99.90;;;;;;5093107;27;20043;-82
2023/06/27 06:53:17;;;;;;;3.75;0.60;;;20.10;99.90;;;;;;5110933;27;20059;-82
2023/06/27 06:55:44;;;;;;;5.13;0.85;;;20.20;99.90;;;;;;5075351;27;20054;-81
2023/06/27 06:58:09;;;;;;;2.38;0.60;;;20.30;99.90;;;;;;5111080;27;20093;-81
2023/06/27 07:00:36;;;;;;;5.75;1.15;;;20.40;99.90;;;;;;5091790;27;20619;-80
2023/06/27 07:03:04;;;;;;;4.13;0.80;;;20.40;99.90;;;;;;5093928;27;20390;-82
2023/06/27 07:05:30;;;;;;;6.22;0.70;;;20.50;99.90;;;;;;5109351;27;20079;-81
2023/06/27 07:07:56;;;;;;;5.35;0.93;;;20.70;99.90;;;;;;5092687;27;20243;-82
2023/06/27 07:10:22;;;;;;;2.55;0.63;;;20.80;99.90;;;;;;5093492;27;20047;-82
2023/06/27 07:12:48;;;;;;;12.48;1.27;;;21.00;99.50;;;;;;5108664;27;20126;-81
2023/06/27 07:15:15;;;;;;;4.95;2.35;;;21.10;99.10;;;;;;5093820;27;20123;-82
2023/06/27 07:17:41;;;;;;;8.90;0.70;;;21.20;98.80;;;;;;5074772;27;20095;-81
2023/06/27 07:20:08;;;;;;;5.93;0.50;;;21.30;98.40;;;;;;5109999;27;20053;-80
2023/06/27 07:22:34;;;;;;;1.98;0.35;;;21.30;97.90;;;;;;5091947;27;20490;-81
2023/06/27 07:25:00;;;;;;;3.00;0.47;;;21.30;97.60;;;;;;5108742;27;20046;-81
2023/06/27 07:27:26;;;;;;;3.10;0.88;;;21.20;97.50;;;;;;5093149;27;20046;-81
2023/06/27 07:29:52;;;;;;;2.22;0.50;;;21.00;97.50;;;;;;5091746;27;20474;-81
2023/06/27 07:32:18;;;;;;;3.08;0.70;;;21.10;97.40;;;;;;5110320;27;20508;-80
2023/06/27 07:34:43;;;;;;;6.65;2.08;;;21.00;97.20;;;;;;5126576;27;20135;-81
2023/06/27 07:37:09;;;;;;;3.55;0.60;;;20.90;97.00;;;;;;5109946;27;20094;-81
2023/06/27 07:39:36;;;;;;;1.70;0.50;;;20.80;96.90;;;;;;5108480;27;20051;-80
2023/06/27 07:42:03;;;;;;;5.47;0.80;;;20.80;97.00;;;;;;5127489;27;20088;-80
2023/06/27 07:44:29;;;;;;;4.88;0.80;;;20.70;97.20;;;;;;5109256;27;20506;-81
2023/06/27 07:46:55;;;;;;;4.72;1.08;;;20.70;97.30;;;;;;5107483;27;20043;-80
2023/06/27 07:49:21;;;;;;;4.38;0.50;;;20.60;97.30;;;;;;5128408;27;20035;-81
2023/06/27 07:51:51;;;;;;;2.67;0.60;;;20.50;97.20;;;;;;5107240;27;20486;-80
2023/06/27 07:54:20;;;;;;;2.00;0.50;;;20.60;97.50;;;;;;5092778;27;20050;-81
2023/06/27 07:56:49;;;;;;;4.28;0.60;;;20.60;97.20;;;;;;5108176;27;20051;-80
2023/06/27 07:59:16;;;;;;;9.57;0.75;;;20.70;97.20;;;;;;5091578;27;20123;-80
2023/06/27 08:01:42;;;;;;;3.72;1.00;;;21.00;97.20;;;;;;5127716;27;20126;-81
2023/06/27 08:04:08;;;;;;;4.90;0.60;;;21.30;96.90;;;;;;5107624;27;20122;-81
2023/06/27 08:06:33;;;;;;;3.05;0.28;;;21.50;96.40;;;;;;5059661;27;20081;-80
2023/06/27 08:08:59;;;;;;;1.85;0.70;;;21.70;95.80;;;;;;5092684;27;20043;-79
2023/06/27 08:11:25;;;;;;;2.00;0.43;;;21.80;95.40;;;;;;5134077;27;20424;-80
2023/06/27 08:13:51;;;;;;;2.50;0.50;;;22.00;95.30;;;;;;5114264;27;20047;-80
2023/06/27 08:16:16;;;;;;;4.53;0.63;;;22.20;94.90;;;;;;5109033;27;20671;-81
2023/06/27 08:18:42;;;;;;;3.28;0.52;;;22.30;94.40;;;;;;5092438;27;20145;-80
2023/06/27 08:21:08;;;;;;;5.10;0.52;;;22.30;93.70;;;;;;5107224;27;20076;-80
2023/06/27 08:23:33;;;;;;;2.55;0.57;;;21.90;93.00;;;;;;5092315;27;20050;-80
2023/06/27 08:25:59;;;;;;;1.95;0.50;;;22.50;92.60;;;;;;5089940;27;20095;-80
2023/06/27 08:28:25;;;;;;;2.28;0.60;;;22.60;92.60;;;;;;5091769;27;20050;-81
2023/06/27 08:30:51;;;;;;;3.85;0.63;;;22.70;92.50;;;;;;5107738;27;20078;-81
2023/06/27 08:33:16;;;;;;;5.40;0.60;;;22.90;92.20;;;;;;5090517;27;20058;-81
2023/06/27 08:35:43;;;;;;;3.97;0.35;;;23.00;91.80;;;;;;5108434;27;20062;-82
2023/06/27 08:38:10;;;;;;;2.58;0.45;;;23.10;91.60;;;;;;5089835;27;20466;-81
2023/06/27 08:40:36;;;;;;;3.60;0.40;;;23.20;91.20;;;;;;5109473;27;20436;-80
2023/06/27 08:43:02;;;;;;;5.30;0.60;;;23.30;90.90;;;;;;5106696;27;20043;-81
2023/06/27 08:45:28;;;;;;;2.65;0.60;;;23.30;90.70;;;;;;5091985;27;20104;-82
2023/06/27 08:47:54;;;;;;;3.85;0.50;;;23.20;90.70;;;;;;5090451;27;20043;-82
2023/06/27 08:50:21;;;;;;;3.70;0.52;;;22.90;90.60;;;;;;5090812;27;20042;-81
2023/06/27 08:52:54;;;;;;;0.90;0.30;;;22.80;90.70;;;;;;5108562;27;20755;-80
2023/06/27 08:55:30;;;;;;;2.97;0.60;;;22.80;89.70;;;;;;5107080;27;20401;-80
2023/06/27 08:57:58;;;;;;;7.15;0.90;;;23.00;90.00;;;;;;5108789;27;20139;-80
2023/06/27 09:00:26;;;;;;;4.05;0.52;;;23.10;90.10;;;;;;5107307;27;20066;-81
2023/06/27 09:02:54;;;;;;;4.22;0.60;;;23.20;89.70;;;;;;5091076;27;20071;-80
2023/06/27 09:05:20;;;;;;;6.20;0.85;;;23.10;89.10;;;;;;5125639;27;20043;-81
2023/06/27 09:07:48;;;;;;;14.50;1.98;;;22.90;89.10;;;;;;5089840;27;20043;-81
2023/06/27 09:10:15;;;;;;;39.50;4.40;;;22.70;88.90;;;;;;5108514;27;20051;-81
2023/06/27 09:12:42;;;;;;;3.22;0.52;;;22.60;88.90;;;;;;5125030;27;20043;-81
2023/06/27 09:15:10;;;;;;;1.15;0.57;;;22.60;88.50;;;;;;5108372;27;20497;-81
2023/06/27 09:17:37;;;;;;;2.30;0.43;;;22.60;88.30;;;;;;5090275;27;20116;-82
2023/06/27 09:20:05;;;;;;;2.05;0.60;;;22.80;88.90;;;;;;5090894;27;20114;-81
2023/06/27 09:22:31;;;;;;;2.08;0.50;;;22.80;87.30;;;;;;5107300;27;20048;-82
2023/06/27 09:25:24;;;;;;;2.55;0.65;;;23.00;87.50;;;;;;5106077;27;20054;-81
2023/06/27 09:27:50;;;;;;;6.25;0.52;;;23.10;86.20;;;;;;5103986;27;20047;-82
2023/06/27 09:30:16;;;;;;;4.82;0.52;;;23.10;86.90;;;;;;5106656;27;20050;-81
2023/06/27 09:32:54;;;;;;;4.88;0.47;;;23.10;86.10;;;;;;5090454;27;20486;-81
2023/06/27 09:35:21;;;;;;;1.55;0.32;;;23.30;85.90;;;;;;5107169;27;20051;-82
2023/06/27 09:37:47;;;;;;;4.55;0.30;;;23.50;86.20;;;;;;5124509;27;20474;-81
2023/06/27 09:40:18;;;;;;;2.65;0.50;;;23.40;85.80;;;;;;5126845;27;20039;-82
2023/06/27 09:42:54;;;;;;;13.07;1.97;;;23.30;85.10;;;;;;5088902;28;20047;-80
2023/06/27 09:45:21;;;;;;;9.30;1.63;;;23.10;85.00;;;;;;5108129;28;20586;-81
2023/06/27 09:47:51;;;;;;;1.92;0.50;;;23.20;85.60;;;;;;5107460;28;20055;-81
2023/06/27 09:50:17;;;;;;;1.40;0.28;;;23.10;84.60;;;;;;5113796;28;20043;-80
2023/06/27 09:52:56;;;;;;;2.65;0.40;;;23.10;85.20;;;;;;5115336;28;20100;-82
2023/06/27 09:55:22;;;;;;;2.47;0.65;;;23.30;84.80;;;;;;5108338;28;20680;-82
2023/06/27 09:57:48;;;;;;;1.08;0.32;;;23.50;84.10;;;;;;5075152;28;20051;-82
2023/06/27 10:00:17;;;;;;;4.63;0.40;;;23.40;83.10;;;;;;5125068;28;20490;-80
2023/06/27 10:02:49;;;;;;;3.72;0.50;;;23.30;82.80;;;;;;5089978;28;20130;-81
2023/06/27 10:05:20;;;;;;;1.88;0.30;;;23.50;82.80;;;;;;5126096;28;20039;-81
2023/06/27 10:07:48;;;;;;;2.60;0.50;;;23.40;81.80;;;;;;5105683;28;20051;-80
2023/06/27 10:10:15;;;;;;;11.13;1.20;;;23.30;82.60;;;;;;5126167;28;20502;-81
2023/06/27 10:12:42;;;;;;;4.63;0.82;;;23.20;83.10;;;;;;5089000;28;20074;-81
2023/06/27 10:15:09;;;;;;;3.97;0.60;;;23.30;83.20;;;;;;5108203;27;20533;-81
2023/06/27 10:17:35;;;;;;;5.25;0.50;;;23.30;83.50;;;;;;5110490;27;20105;-81
2023/06/27 10:20:03;;;;;;;2.28;0.38;;;23.30;83.40;;;;;;5110863;27;20139;-81
2023/06/27 10:22:32;;;;;;;1.60;0.40;;;23.20;82.60;;;;;;5111201;27;20039;-82
2023/06/27 10:25:03;;;;;;;4.85;0.70;;;23.20;82.30;;;;;;5110299;27;20031;-80
2023/06/27 10:27:35;;;;;;;3.50;0.50;;;23.10;82.40;;;;;;5112212;27;20078;-83
2023/06/27 10:30:28;;;;;;;3.55;0.63;;;22.90;82.40;;;;;;5109715;27;20050;-82
2023/06/27 10:33:19;;;;;;;3.28;0.85;;;22.80;82.80;;;;;;5100293;27;20130;-82
2023/06/27 10:35:55;;;;;;;4.38;0.82;;;22.80;83.90;;;;;;5095030;27;20038;-81
2023/06/27 10:38:21;;;;;;;7.57;1.40;;;23.00;83.30;;;;;;5109138;27;20505;-81
2023/06/27 10:41:03;;;;;;;3.80;0.90;;;23.20;83.50;;;;;;5110666;27;20043;-81
2023/06/27 10:43:39;;;;;;;3.60;0.57;;;23.20;82.70;;;;;;5110073;27;20080;-81
2023/06/27 10:46:09;;;;;;;1.80;0.47;;;23.40;82.80;;;;;;5092164;27;20067;-82
2023/06/27 10:48:59;;;;;;;2.47;0.40;;;23.50;82.90;;;;;;5094509;27;20063;-83
2023/06/27 10:51:38;;;;;;;5.65;0.80;;;23.60;82.00;;;;;;5078085;27;20124;-82
2023/06/27 10:54:11;;;;;;;2.78;0.57;;;23.60;82.30;;;;;;5110303;27;20046;-83
2023/06/27 10:56:45;;;;;;;1.80;0.45;;;23.50;81.90;;;;;;5094640;27;20047;-83
2023/06/27 10:59:16;;;;;;;2.65;0.60;;;23.40;81.90;;;;;;5111384;27;20035;-82
2023/06/27 11:01:53;;;;;;;2.78;0.32;;;23.30;81.60;;;;;;5113907;27;20039;-83
2023/06/27 11:04:20;;;;;;;5.43;0.55;;;23.10;80.70;;;;;;5110729;27;20055;-82
2023/06/27 11:06:46;;;;;;;5.65;0.60;;;23.10;81.90;;;;;;5110971;27;20068;-83
2023/06/27 11:09:17;;;;;;;2.58;0.55;;;23.10;82.20;;;;;;5110445;27;20095;-83
2023/06/27 11:12:11;;;;;;;2.90;1.23;;;23.10;81.90;;;;;;5110247;27;20051;-83
2023/06/27 11:14:48;;;;;;;3.75;0.60;;;23.10;82.00;;;;;;5112040;27;20090;-84
2023/06/27 11:17:17;;;;;;;2.92;0.57;;;23.20;82.70;;;;;;5109860;27;20406;-84
2023/06/27 11:19:43;;;;;;;4.03;1.17;;;23.20;82.20;;;;;;5130775;27;20108;-87
2023/06/27 11:22:09;;;;;;;2.70;0.40;;;23.40;81.90;;;;;;5112946;27;20583;-86
2023/06/27 11:24:35;;;;;;;2.95;0.70;;;23.40;81.50;;;;;;5093566;27;20140;-86
2023/06/27 11:27:07;;;;;;;1.63;0.40;;;23.50;81.50;;;;;;5094330;27;20077;-87
2023/06/27 11:29:36;;;;;;;2.42;0.25;;;23.60;80.30;;;;;;5111281;27;20066;-83
2023/06/27 11:32:02;;;;;;;2.97;0.40;;;23.70;79.90;;;;;;5116355;27;20046;-85
2023/06/27 11:34:28;;;;;;;2.95;0.70;;;23.60;79.10;;;;;;5113938;27;20043;-85
2023/06/27 11:36:55;;;;;;;5.13;0.60;;;23.60;79.00;;;;;;5095557;27;20043;-84
2023/06/27 11:39:21;;;;;;;2.47;0.77;;;23.50;78.80;;;;;;5129311;27;20047;-85
2023/06/27 11:41:47;;;;;;;3.05;0.40;;;23.50;79.30;;;;;;5127415;27;20046;-86
2023/06/27 11:44:17;;;;;;;3.42;0.35;;;23.50;79.40;;;;;;5093549;27;20509;-85
2023/06/27 11:46:54;;;;;;;4.68;0.57;;;24.00;79.10;;;;;;5108019;27;20067;-85
2023/06/27 11:49:24;;;;;;;4.68;0.75;;;23.50;77.80;;;;;;5092586;27;20186;-84
2023/06/27 11:51:51;;;;;;;1.00;0.30;;;23.50;78.90;;;;;;5109340;27;20062;-85
2023/06/27 11:54:18;;;;;;;3.72;0.73;;;23.30;78.90;;;;;;5091543;27;20035;-84
2023/06/27 11:56:44;;;;;;;2.28;0.20;;;23.30;78.80;;;;;;5110018;27;20054;-85
2023/06/27 11:59:10;;;;;;;4.40;0.60;;;23.20;78.60;;;;;;5108085;27;20481;-85
2023/06/27 12:01:43;;;;;;;1.65;0.45;;;23.20;78.80;;;;;;5110816;27;20150;-84
2023/06/27 12:04:17;;;;;;;2.30;0.52;;;23.10;79.00;;;;;;5076881;27;20050;-84
2023/06/27 12:06:44;;;;;;;2.80;0.52;;;23.20;79.30;;;;;;5108467;27;20057;-85
2023/06/27 12:09:24;;;;;;;4.43;0.60;;;23.30;79.40;;;;;;5127470;27;20039;-84
2023/06/27 12:11:58;;;;;;;4.75;0.80;;;23.20;78.80;;;;;;5108091;27;20456;-84
2023/06/27 12:14:25;;;;;;;1.58;0.40;;;23.20;79.10;;;;;;5110675;27;20039;-85
2023/06/27 12:16:52;;;;;;;4.05;0.82;;;23.20;78.20;;;;;;5126347;27;20047;-83
2023/06/27 12:19:19;;;;;;;2.65;0.50;;;23.20;77.90;;;;;;5108708;27;20535;-84
2023/06/27 12:21:46;;;;;;;2.70;1.48;;;23.20;77.80;;;;;;5092352;27;20136;-84
2023/06/27 12:24:12;;;;;;;1.85;0.52;;;23.10;78.10;;;;;;5090874;27;20446;-84
2023/06/27 12:26:39;;;;;;;2.00;0.55;;;22.90;78.30;;;;;;5109402;27;20039;-84
2023/06/27 12:29:07;;;;;;;4.03;0.70;;;22.70;78.90;;;;;;5091147;27;20039;-85
2023/06/27 12:31:35;;;;;;;2.42;0.57;;;22.70;79.60;;;;;;5109861;27;20345;-84
2023/06/27 12:34:01;;;;;;;5.05;1.42;;;22.60;79.60;;;;;;5108097;27;20050;-85
2023/06/27 12:36:27;;;;;;;2.08;0.57;;;22.60;79.80;;;;;;5108649;27;20616;-83
2023/06/27 12:38:56;;;;;;;3.47;0.50;;;22.60;79.90;;;;;;5091060;27;20040;-83
2023/06/27 12:41:23;;;;;;;5.57;0.82;;;22.70;80.10;;;;;;5107634;27;20135;-85
2023/06/27 12:43:49;;;;;;;3.45;0.50;;;22.70;79.90;;;;;;5108801;27;20058;-84
2023/06/27 12:46:15;;;;;;;2.53;0.40;;;22.70;79.60;;;;;;5125429;27;20043;-82
2023/06/27 12:48:41;;;;;;;3.72;0.70;;;22.80;79.40;;;;;;5109201;27;20128;-84